Time;durP1;ratioP1;P1;durP2;ratioP2;P2;SDS_P1;SDS_P2;PMS_P1;PMS_P2;Temp;Humidity;BMP_temperature;BMP_pressure;BME280_temperature;BME280_humidity;BME280_pressure;Samples;Min_cycle;Max_cycle;Signal;HPM_P1;HPM_P2
2021/10/29 00:00:12;;;;;;;7.80;6.20;;;13.90;72.90;;;;;;5069347;28;20080;-86
2021/10/29 00:02:38;;;;;;;6.53;5.60;;;13.90;72.90;;;;;;5066350;28;20021;-86
2021/10/29 00:05:06;;;;;;;8.15;6.05;;;13.80;72.90;;;;;;5068173;28;20965;-85
2021/10/29 00:07:31;;;;;;;8.80;5.82;;;13.80;72.90;;;;;;5042662;28;20020;-86
2021/10/29 00:09:58;;;;;;;9.27;6.32;;;13.80;72.90;;;;;;5067176;28;20032;-86
2021/10/29 00:12:24;;;;;;;7.63;6.05;;;13.80;72.90;;;;;;5077611;28;20028;-85
2021/10/29 00:14:51;;;;;;;7.90;5.60;;;13.80;72.90;;;;;;5054064;28;20033;-84
2021/10/29 00:17:18;;;;;;;7.57;5.60;;;13.80;73.00;;;;;;5046574;28;20190;-85
2021/10/29 00:19:44;;;;;;;8.05;5.85;;;13.70;72.90;;;;;;5070651;28;20061;-85
2021/10/29 00:22:10;;;;;;;7.75;5.88;;;13.70;72.90;;;;;;5063117;28;20033;-86
2021/10/29 00:24:37;;;;;;;10.30;5.80;;;13.70;73.00;;;;;;5073622;28;20028;-85
2021/10/29 00:27:03;;;;;;;7.03;5.30;;;13.70;73.00;;;;;;5065372;28;20039;-85
2021/10/29 00:29:29;;;;;;;7.20;5.45;;;13.70;73.00;;;;;;5058110;28;20029;-85
2021/10/29 00:31:55;;;;;;;8.65;5.95;;;13.60;73.00;;;;;;5078501;28;20040;-86
2021/10/29 00:34:21;;;;;;;8.23;6.05;;;13.60;73.00;;;;;;5053124;28;20056;-87
2021/10/29 00:36:47;;;;;;;7.15;5.28;;;13.60;73.00;;;;;;5039690;28;20053;-86
2021/10/29 00:39:14;;;;;;;7.68;5.45;;;13.60;73.00;;;;;;5090580;28;20083;-83
2021/10/29 00:41:40;;;;;;;7.15;5.18;;;13.60;73.00;;;;;;5079329;28;20044;-85
2021/10/29 00:44:06;;;;;;;7.85;5.85;;;13.60;73.10;;;;;;5063652;28;20029;-86
2021/10/29 00:46:32;;;;;;;6.93;5.45;;;13.60;73.10;;;;;;5071353;28;20022;-87
2021/10/29 00:48:58;;;;;;;6.88;5.05;;;13.50;73.00;;;;;;5063399;28;20036;-86
2021/10/29 00:51:24;;;;;;;7.47;5.40;;;13.50;73.00;;;;;;5024709;28;20034;-86
2021/10/29 00:53:50;;;;;;;7.05;5.63;;;13.50;73.10;;;;;;5073292;28;20123;-85
2021/10/29 00:56:17;;;;;;;6.65;5.13;;;13.50;73.10;;;;;;5074717;28;20021;-85
2021/10/29 00:58:44;;;;;;;7.55;5.47;;;13.50;73.10;;;;;;5058103;28;20480;-86
2021/10/29 01:01:10;;;;;;;7.10;5.38;;;13.50;73.10;;;;;;5082126;28;20067;-86
2021/10/29 01:03:40;;;;;;;7.95;6.00;;;13.40;73.10;;;;;;5044257;28;20028;-86
2021/10/29 01:06:11;;;;;;;7.28;5.30;;;13.40;73.10;;;;;;5074330;28;20104;-86
2021/10/29 01:08:37;;;;;;;7.35;5.78;;;13.40;73.10;;;;;;5048827;28;20086;-86
2021/10/29 01:11:04;;;;;;;8.20;5.82;;;13.40;73.10;;;;;;5040871;28;20094;-86
2021/10/29 01:13:31;;;;;;;7.13;5.50;;;13.40;73.20;;;;;;5065497;28;20031;-86
2021/10/29 01:15:58;;;;;;;7.65;5.30;;;13.30;73.20;;;;;;5071763;28;20112;-86
2021/10/29 01:18:24;;;;;;;6.40;5.05;;;13.40;73.20;;;;;;5050376;28;20056;-84
2021/10/29 01:20:50;;;;;;;6.53;4.88;;;13.40;73.30;;;;;;5049414;28;20083;-86
2021/10/29 01:23:15;;;;;;;7.20;5.50;;;13.40;73.30;;;;;;5051915;28;20053;-86
2021/10/29 01:25:41;;;;;;;6.95;4.90;;;13.30;73.20;;;;;;5068604;28;20429;-86
2021/10/29 01:28:12;;;;;;;7.68;5.55;;;13.30;73.20;;;;;;5049903;28;20017;-85
2021/10/29 01:30:38;;;;;;;6.85;5.00;;;13.30;73.30;;;;;;5065417;28;20555;-86
2021/10/29 01:33:04;;;;;;;7.18;5.60;;;13.30;73.30;;;;;;5069806;28;20033;-85
2021/10/29 01:35:30;;;;;;;7.55;5.38;;;13.30;73.30;;;;;;5066351;28;20039;-86
2021/10/29 01:37:56;;;;;;;7.93;5.45;;;13.30;73.30;;;;;;5059623;28;20024;-85
2021/10/29 01:40:21;;;;;;;7.57;5.65;;;13.20;73.20;;;;;;5075953;28;20460;-85
2021/10/29 01:42:48;;;;;;;6.75;5.20;;;13.20;73.30;;;;;;5069449;28;20029;-86
2021/10/29 01:45:14;;;;;;;7.30;5.18;;;13.20;73.30;;;;;;5052528;28;20028;-85
2021/10/29 01:47:40;;;;;;;7.28;5.25;;;13.20;73.40;;;;;;5076297;28;20033;-86
2021/10/29 01:50:08;;;;;;;7.10;5.55;;;13.20;73.40;;;;;;5056219;28;20037;-85
2021/10/29 01:52:34;;;;;;;7.90;4.90;;;13.20;73.40;;;;;;5064942;28;20032;-84
2021/10/29 01:55:00;;;;;;;7.03;5.43;;;13.20;73.40;;;;;;5040586;28;20111;-85
2021/10/29 01:57:26;;;;;;;7.88;5.45;;;13.20;73.40;;;;;;5040403;28;20066;-87
2021/10/29 01:59:52;;;;;;;6.97;5.25;;;13.20;73.40;;;;;;5048941;28;20060;-86
2021/10/29 02:02:18;;;;;;;7.80;5.57;;;13.10;73.40;;;;;;5067875;28;20021;-85
2021/10/29 02:04:44;;;;;;;6.75;5.50;;;13.10;73.40;;;;;;5052062;28;20024;-86
2021/10/29 02:07:10;;;;;;;6.95;5.03;;;13.10;73.40;;;;;;5045706;28;20059;-85
2021/10/29 02:09:35;;;;;;;7.57;5.72;;;13.10;73.40;;;;;;5037272;28;20029;-86
2021/10/29 02:12:01;;;;;;;6.57;5.05;;;13.10;73.40;;;;;;5044920;28;20033;-86
2021/10/29 02:14:27;;;;;;;6.57;4.68;;;13.10;73.50;;;;;;5064804;28;20116;-85
2021/10/29 02:16:54;;;;;;;6.55;5.22;;;13.10;73.50;;;;;;5048480;28;20033;-86
2021/10/29 02:19:20;;;;;;;7.65;5.30;;;13.10;73.50;;;;;;5045944;28;20053;-86
2021/10/29 02:21:46;;;;;;;6.75;5.10;;;13.10;73.50;;;;;;5074107;28;20024;-85
2021/10/29 02:24:12;;;;;;;6.68;4.97;;;13.10;73.50;;;;;;5039837;28;20051;-86
2021/10/29 02:26:38;;;;;;;6.35;4.70;;;13.00;73.50;;;;;;5056358;28;20568;-86
2021/10/29 02:29:04;;;;;;;6.57;4.78;;;13.00;73.50;;;;;;5039024;28;20032;-86
2021/10/29 02:31:31;;;;;;;6.75;5.03;;;13.00;73.50;;;;;;5064372;28;20059;-85
2021/10/29 02:33:57;;;;;;;6.35;4.60;;;13.00;73.50;;;;;;5056999;28;20025;-86
2021/10/29 02:36:24;;;;;;;6.93;5.28;;;13.00;73.50;;;;;;5079866;28;20114;-87
2021/10/29 02:38:49;;;;;;;7.22;5.30;;;13.00;73.50;;;;;;5073371;28;20033;-86
2021/10/29 02:41:16;;;;;;;6.60;4.72;;;13.00;73.50;;;;;;5069610;28;20067;-86
2021/10/29 02:43:44;;;;;;;6.93;5.10;;;13.00;73.60;;;;;;5056291;28;20024;-85
2021/10/29 02:46:14;;;;;;;6.63;5.03;;;13.00;73.60;;;;;;5040833;28;20492;-86
2021/10/29 02:48:40;;;;;;;6.97;4.97;;;13.00;73.60;;;;;;5047120;28;20052;-85
2021/10/29 02:51:06;;;;;;;7.10;4.90;;;13.00;73.60;;;;;;5064492;28;20056;-86
2021/10/29 02:53:35;;;;;;;6.63;4.90;;;13.00;73.60;;;;;;5047291;28;20800;-87
2021/10/29 02:56:03;;;;;;;7.22;4.85;;;13.00;73.60;;;;;;5048276;28;20488;-87
2021/10/29 02:58:31;;;;;;;6.78;4.80;;;12.90;73.60;;;;;;5039384;28;20020;-87
2021/10/29 03:00:57;;;;;;;6.05;4.47;;;12.90;73.60;;;;;;5071350;28;20058;-86
2021/10/29 03:03:24;;;;;;;7.65;4.50;;;12.90;73.60;;;;;;5063323;28;20028;-87
2021/10/29 03:05:50;;;;;;;6.45;4.40;;;12.90;73.60;;;;;;5030728;28;20385;-86
2021/10/29 03:08:15;;;;;;;6.32;4.60;;;12.90;73.60;;;;;;5054468;28;20032;-87
2021/10/29 03:10:41;;;;;;;7.05;4.72;;;12.90;73.60;;;;;;5043358;28;20481;-85
2021/10/29 03:13:07;;;;;;;6.32;4.75;;;12.90;73.60;;;;;;5030464;28;20033;-84
2021/10/29 03:15:33;;;;;;;5.63;4.25;;;12.90;73.60;;;;;;5060366;28;20025;-84
2021/10/29 03:17:59;;;;;;;6.65;4.50;;;12.90;73.60;;;;;;5051500;28;20377;-84
2021/10/29 03:20:24;;;;;;;6.32;4.40;;;12.90;73.70;;;;;;5063991;28;20053;-84
2021/10/29 03:22:50;;;;;;;7.50;4.50;;;12.90;73.70;;;;;;5045604;28;20041;-84
2021/10/29 03:25:16;;;;;;;6.45;4.57;;;12.90;73.70;;;;;;5074979;28;20028;-84
2021/10/29 03:27:42;;;;;;;6.47;4.47;;;12.90;73.70;;;;;;5067445;28;20108;-85
2021/10/29 03:30:09;;;;;;;6.43;4.72;;;12.90;73.80;;;;;;5068806;28;20048;-84
2021/10/29 03:32:35;;;;;;;6.85;4.43;;;12.90;73.70;;;;;;5055082;28;20067;-82
2021/10/29 03:35:02;;;;;;;6.30;4.85;;;12.90;73.70;;;;;;5051624;28;20065;-84
2021/10/29 03:40:51;;;;;;;7.00;4.90;;;12.90;73.70;;;;;;5071001;28;20123;-84
2021/10/29 03:45:19;;;;;;;6.82;4.70;;;12.90;73.70;;;;;;5055720;28;20098;-84
2021/10/29 03:47:54;;;;;;;5.72;4.50;;;12.80;73.70;;;;;;5067402;28;20029;-84
2021/10/29 03:50:25;;;;;;;6.28;4.57;;;12.80;73.70;;;;;;5060529;28;20063;-85
2021/10/29 03:53:00;;;;;;;6.82;4.75;;;12.80;73.70;;;;;;5062599;28;20028;-84
2021/10/29 03:56:00;;;;;;;6.72;4.82;;;12.80;73.70;;;;;;5063799;28;20038;-84
2021/10/29 03:58:18;;;;;;;6.40;4.35;;;12.80;73.70;;;;;;5047213;28;20474;-83
2021/10/29 04:00:44;;;;;;;6.05;4.22;;;12.80;73.70;;;;;;5067706;28;20037;-84
2021/10/29 04:03:09;;;;;;;6.13;4.50;;;12.80;73.70;;;;;;5046699;28;20503;-84
2021/10/29 04:05:35;;;;;;;5.68;3.92;;;12.80;73.80;;;;;;5063444;28;20446;-83
2021/10/29 04:08:01;;;;;;;6.70;4.57;;;12.80;73.80;;;;;;5053849;28;20041;-84
2021/10/29 04:10:29;;;;;;;5.35;4.10;;;12.80;73.80;;;;;;5062680;28;20119;-84
2021/10/29 04:12:58;;;;;;;5.75;4.25;;;12.80;73.80;;;;;;5035969;28;20135;-84
2021/10/29 04:15:24;;;;;;;5.68;4.05;;;12.80;73.80;;;;;;5054189;28;20359;-84
2021/10/29 04:17:50;;;;;;;6.38;4.68;;;12.80;73.80;;;;;;5029506;28;20141;-84
2021/10/29 04:20:18;;;;;;;6.10;4.22;;;12.80;73.80;;;;;;5070374;28;20194;-85
2021/10/29 04:22:44;;;;;;;5.47;4.20;;;12.80;73.80;;;;;;5045878;28;20029;-83
2021/10/29 04:25:11;;;;;;;6.45;4.55;;;12.80;73.80;;;;;;5019989;28;20106;-84
2021/10/29 04:27:44;;;;;;;5.70;4.35;;;12.80;73.80;;;;;;5096870;28;20021;-84
2021/10/29 04:30:14;;;;;;;6.00;4.30;;;12.80;73.80;;;;;;5027604;28;20041;-84
2021/10/29 04:32:40;;;;;;;6.22;4.43;;;12.80;73.80;;;;;;5054356;28;20036;-85
2021/10/29 04:35:06;;;;;;;5.72;4.15;;;12.80;73.80;;;;;;5063619;28;20532;-84
2021/10/29 04:37:32;;;;;;;6.43;4.57;;;12.80;73.80;;;;;;5069870;28;20040;-84
2021/10/29 04:39:58;;;;;;;6.45;4.45;;;12.80;73.80;;;;;;5060545;28;20096;-80
2021/10/29 04:42:24;;;;;;;5.57;4.18;;;12.80;73.80;;;;;;5035262;28;20056;-81
2021/10/29 04:44:50;;;;;;;6.05;4.80;;;12.70;73.80;;;;;;5066293;28;20052;-82
2021/10/29 04:47:15;;;;;;;5.40;4.03;;;12.80;73.80;;;;;;5070286;28;20044;-84
2021/10/29 04:49:41;;;;;;;5.80;4.45;;;12.80;73.80;;;;;;5052033;28;20041;-82
2021/10/29 04:52:07;;;;;;;6.10;4.60;;;12.80;73.80;;;;;;5061968;28;20096;-82
2021/10/29 04:54:33;;;;;;;6.10;4.35;;;12.70;73.80;;;;;;5062454;28;20485;-82
2021/10/29 04:56:59;;;;;;;6.35;4.07;;;12.80;73.80;;;;;;5052423;28;20028;-83
2021/10/29 04:59:25;;;;;;;6.10;4.53;;;12.80;73.80;;;;;;5044061;28;20041;-82
2021/10/29 05:01:51;;;;;;;6.43;4.57;;;12.70;73.80;;;;;;5067073;28;20029;-82
2021/10/29 05:04:19;;;;;;;6.15;4.28;;;12.80;73.80;;;;;;5057872;28;20420;-82
2021/10/29 05:06:45;;;;;;;5.65;4.10;;;12.80;73.80;;;;;;5057414;28;20027;-82
2021/10/29 05:09:11;;;;;;;6.63;4.63;;;12.80;73.80;;;;;;5054352;28;20032;-82
2021/10/29 05:11:37;;;;;;;5.47;4.03;;;12.80;74.50;;;;;;5049045;28;20078;-83
2021/10/29 05:14:04;;;;;;;5.75;4.10;;;12.80;73.90;;;;;;5055782;28;20029;-82
2021/10/29 05:16:30;;;;;;;6.28;4.20;;;12.80;73.80;;;;;;5046920;28;20055;-81
2021/10/29 05:18:56;;;;;;;6.10;4.25;;;12.70;73.80;;;;;;5069678;28;20657;-80
2021/10/29 05:21:22;;;;;;;8.52;4.53;;;12.70;73.90;;;;;;5024366;28;20116;-82
2021/10/29 05:23:47;;;;;;;7.18;4.50;;;12.70;73.80;;;;;;5057908;28;20123;-81
2021/10/29 05:26:13;;;;;;;5.60;4.25;;;12.70;73.80;;;;;;5071308;28;20043;-81
2021/10/29 05:28:39;;;;;;;6.03;4.00;;;12.70;73.80;;;;;;5069918;28;20033;-82
2021/10/29 05:31:05;;;;;;;5.50;3.92;;;12.70;73.80;;;;;;5064244;28;20036;-79
2021/10/29 05:33:31;;;;;;;5.72;4.38;;;12.70;73.80;;;;;;5071703;28;20025;-79
2021/10/29 05:35:57;;;;;;;6.03;4.30;;;12.70;73.80;;;;;;5071699;28;20032;-80
2021/10/29 05:38:23;;;;;;;6.25;4.07;;;12.70;73.80;;;;;;5071066;28;20536;-80
2021/10/29 05:40:49;;;;;;;6.15;4.10;;;12.70;73.90;;;;;;5045852;28;20393;-80
2021/10/29 05:43:15;;;;;;;5.70;4.13;;;12.70;73.80;;;;;;5069390;28;20017;-80
2021/10/29 05:45:41;;;;;;;5.68;4.30;;;12.70;73.80;;;;;;5053595;28;20029;-80
2021/10/29 05:48:08;;;;;;;6.45;4.93;;;12.70;73.80;;;;;;5034195;28;20032;-80
2021/10/29 05:50:35;;;;;;;5.50;4.18;;;12.70;73.90;;;;;;5063018;28;20038;-80
2021/10/29 05:53:05;;;;;;;5.68;4.10;;;12.70;73.90;;;;;;5044651;28;20439;-80
2021/10/29 05:55:31;;;;;;;7.07;4.75;;;12.70;73.90;;;;;;5036902;28;20032;-78
2021/10/29 05:57:57;;;;;;;5.70;4.25;;;12.70;73.90;;;;;;5068353;28;20032;-79
2021/10/29 06:00:27;;;;;;;6.15;4.78;;;12.70;73.90;;;;;;5061275;28;20036;-80
2021/10/29 06:03:01;;;;;;;5.80;4.20;;;12.70;73.90;;;;;;5078401;28;20502;-79
2021/10/29 06:05:27;;;;;;;;;;;12.70;73.90;;;;;;5078332;28;20032;-80
2021/10/29 06:07:53;;;;;;;4.70;3.53;;;12.70;73.80;;;;;;5054308;28;19908;-80
2021/10/29 06:10:19;;;;;;;5.90;4.00;;;12.70;73.70;;;;;;5065270;28;20469;-79
2021/10/29 06:12:45;;;;;;;6.13;4.05;;;12.60;73.80;;;;;;5068643;28;20404;-81
2021/10/29 06:15:14;;;;;;;6.10;4.13;;;12.60;73.90;;;;;;5039167;28;20038;-81
2021/10/29 06:17:40;;;;;;;5.18;3.65;;;12.60;73.90;;;;;;5067020;28;20033;-80
2021/10/29 06:20:07;;;;;;;5.85;4.20;;;12.60;73.90;;;;;;5063537;28;20056;-80
2021/10/29 06:22:36;;;;;;;5.85;4.28;;;12.60;73.90;;;;;;5068640;28;20028;-82
2021/10/29 06:25:12;;;;;;;6.30;4.45;;;12.70;73.90;;;;;;5064351;28;20125;-81
2021/10/29 06:30:05;;;;;;;6.60;4.55;;;12.60;73.90;;;;;;5055141;28;20044;-83
2021/10/29 06:32:31;;;;;;;6.55;4.78;;;12.60;73.90;;;;;;5052927;28;20024;-82
2021/10/29 06:34:57;;;;;;;6.05;4.60;;;12.60;73.90;;;;;;5047457;28;20037;-81
2021/10/29 06:37:23;;;;;;;6.65;4.60;;;12.60;73.90;;;;;;5037542;28;20025;-80
2021/10/29 06:39:50;;;;;;;5.80;4.20;;;12.60;73.90;;;;;;5022605;28;20032;-81
2021/10/29 06:42:22;;;;;;;5.85;4.15;;;12.60;73.90;;;;;;5048217;28;20028;-81
2021/10/29 07:00:58;;;;;;;5.35;3.90;;;12.60;73.90;;;;;;5062824;28;20052;-82
2021/10/29 07:03:42;;;;;;;5.20;4.13;;;12.60;73.90;;;;;;5060309;28;20392;-82
2021/10/29 07:41:44;;;;;;;6.47;3.90;;;12.50;74.70;;;;;;5059308;28;20501;-78
2021/10/29 07:44:18;;;;;;;5.50;3.83;;;12.50;74.80;;;;;;5073447;28;20021;-82
2021/10/29 07:46:44;;;;;;;5.40;3.97;;;12.50;74.20;;;;;;5047387;28;20044;-86
2021/10/29 07:49:10;;;;;;;6.00;4.07;;;12.50;74.20;;;;;;5078247;28;20373;-82
2021/10/29 07:51:38;;;;;;;6.05;4.43;;;12.60;74.20;;;;;;5053211;28;20040;-82
2021/10/29 07:54:05;;;;;;;5.68;4.10;;;12.60;74.20;;;;;;5029736;28;20035;-81
2021/10/29 07:56:31;;;;;;;5.75;4.28;;;12.60;74.20;;;;;;5065446;28;20060;-82
2021/10/29 07:58:56;;;;;;;6.03;3.97;;;12.60;74.20;;;;;;5067698;28;20029;-82
2021/10/29 08:01:22;;;;;;;5.85;3.95;;;12.60;74.20;;;;;;5049010;28;20102;-82
2021/10/29 08:03:48;;;;;;;4.90;3.97;;;12.60;74.20;;;;;;5052459;28;20656;-82
2021/10/29 08:06:14;;;;;;;5.13;3.88;;;12.60;74.20;;;;;;5046055;28;20111;-82
2021/10/29 08:08:41;;;;;;;4.88;3.63;;;12.60;74.20;;;;;;5070297;28;20028;-82
2021/10/29 08:11:07;;;;;;;6.43;3.83;;;12.60;74.20;;;;;;5042112;28;20029;-82
2021/10/29 08:13:33;;;;;;;5.03;3.75;;;12.60;74.20;;;;;;5065377;28;20081;-83
2021/10/29 08:16:03;;;;;;;5.38;3.85;;;12.60;74.20;;;;;;5044698;28;20043;-83
2021/10/29 08:18:30;;;;;;;5.30;3.92;;;12.60;74.20;;;;;;5062826;28;20044;-82
2021/10/29 08:20:56;;;;;;;5.82;4.05;;;12.70;74.30;;;;;;5044824;28;20083;-83
2021/10/29 08:23:22;;;;;;;5.75;4.13;;;12.60;74.30;;;;;;5017430;28;20061;-83
2021/10/29 08:25:48;;;;;;;5.80;4.10;;;12.60;74.30;;;;;;5041893;28;20028;-83
2021/10/29 08:28:14;;;;;;;5.40;4.13;;;12.60;74.30;;;;;;5059746;28;20039;-83
2021/10/29 08:30:40;;;;;;;5.88;4.03;;;12.70;74.40;;;;;;5061654;28;20027;-83
2021/10/29 08:33:06;;;;;;;5.65;3.92;;;12.70;74.30;;;;;;5062194;28;20029;-82
2021/10/29 08:35:32;;;;;;;5.82;3.90;;;12.70;75.00;;;;;;5061342;28;20033;-82
2021/10/29 08:37:58;;;;;;;5.97;4.18;;;12.70;74.40;;;;;;5061576;28;20284;-83
2021/10/29 08:40:25;;;;;;;5.20;3.80;;;12.70;74.40;;;;;;5053371;28;20075;-82
2021/10/29 08:42:52;;;;;;;5.63;4.35;;;12.70;74.30;;;;;;5045465;28;20036;-82
2021/10/29 08:45:18;;;;;;;5.80;4.03;;;12.80;74.40;;;;;;5070147;28;20021;-82
2021/10/29 08:47:46;;;;;;;5.60;4.30;;;12.70;74.40;;;;;;5053357;28;20031;-82
2021/10/29 08:50:15;;;;;;;5.63;4.00;;;12.70;74.40;;;;;;5061392;28;20361;-82
2021/10/29 08:52:46;;;;;;;5.38;3.88;;;12.80;74.40;;;;;;5061021;28;20039;-82
2021/10/29 08:55:14;;;;;;;6.03;4.25;;;12.80;74.40;;;;;;5064212;28;20017;-83
2021/10/29 08:57:43;;;;;;;5.10;3.92;;;12.90;74.40;;;;;;5044843;28;20020;-82
2021/10/29 09:00:24;;;;;;;6.00;3.88;;;12.80;74.40;;;;;;5060892;28;20558;-83
2021/10/29 09:03:17;;;;;;;5.28;3.67;;;12.90;74.50;;;;;;5062627;28;20120;-83
2021/10/29 09:05:51;;;;;;;5.03;3.25;;;12.90;74.40;;;;;;5063373;28;20032;-84
2021/10/29 09:08:24;;;;;;;5.10;3.72;;;12.90;74.30;;;;;;5066354;28;20032;-82
2021/10/29 09:34:05;;;;;;;5.53;3.40;;;13.20;74.20;;;;;;5062930;28;20007;-83
2021/10/29 09:36:37;;;;;;;4.70;3.53;;;13.20;74.20;;;;;;5074987;28;20031;-84
2021/10/29 09:39:10;;;;;;;4.88;3.35;;;13.30;74.40;;;;;;5056160;28;20468;-81
2021/10/29 09:41:44;;;;;;;5.82;3.88;;;13.30;74.40;;;;;;5064942;28;20028;-84
2021/10/29 09:44:17;;;;;;;5.72;3.78;;;13.40;74.40;;;;;;5052860;28;20496;-81
2021/10/29 09:46:54;;;;;;;5.13;3.58;;;13.40;74.40;;;;;;5062740;28;20491;-81
2021/10/29 09:49:35;;;;;;;6.65;4.60;;;13.50;74.40;;;;;;5068829;28;20150;-82
2021/10/29 09:52:33;;;;;;;5.88;4.13;;;13.50;74.40;;;;;;5072619;28;20029;-81
2021/10/29 09:57:33;;;;;;;5.55;3.40;;;13.60;74.40;;;;;;5055008;28;20048;-81
2021/10/29 10:00:00;;;;;;;5.95;4.15;;;13.70;74.40;;;;;;5058420;28;20035;-80
2021/10/29 10:02:29;;;;;;;5.30;3.72;;;13.80;74.50;;;;;;5052911;28;20039;-81
2021/10/29 10:04:57;;;;;;;5.28;3.85;;;13.80;74.50;;;;;;5062669;28;20021;-80
2021/10/29 10:07:30;;;;;;;6.10;4.43;;;13.80;74.60;;;;;;5073955;28;20079;-80
2021/10/29 10:09:57;;;;;;;5.78;4.15;;;13.90;74.60;;;;;;5069199;28;20142;-79
2021/10/29 10:12:27;;;;;;;6.53;4.43;;;13.90;74.70;;;;;;5060252;28;20107;-81
2021/10/29 10:14:54;;;;;;;5.60;4.30;;;14.00;74.80;;;;;;5072431;28;20024;-80
2021/10/29 10:17:21;;;;;;;7.32;4.70;;;14.00;74.80;;;;;;5056731;28;20031;-80
2021/10/29 10:19:49;;;;;;;5.82;4.20;;;14.10;75.00;;;;;;5047899;28;20066;-79
2021/10/29 10:22:18;;;;;;;7.28;4.30;;;14.10;75.00;;;;;;5063318;28;20021;-80
2021/10/29 10:24:58;;;;;;;5.90;4.53;;;14.20;75.10;;;;;;5065142;28;20023;-83
2021/10/29 10:27:52;;;;;;;5.75;3.95;;;14.20;75.20;;;;;;5066819;28;20051;-80
2021/10/29 10:30:36;;;;;;;4.85;3.50;;;14.20;75.80;;;;;;5075927;28;20122;-80
2021/10/29 10:42:06;;;;;;;5.07;3.75;;;14.40;75.50;;;;;;5069197;28;20055;-82
2021/10/29 10:47:01;;;;;;;5.50;4.00;;;14.40;75.50;;;;;;5052046;28;20021;-81
2021/10/29 10:49:44;;;;;;;5.00;3.67;;;14.50;75.70;;;;;;5056621;28;20520;-81
2021/10/29 10:52:32;;;;;;;5.18;3.60;;;14.50;75.90;;;;;;5067028;28;20028;-82
2021/10/29 10:55:11;;;;;;;5.75;3.65;;;14.50;75.70;;;;;;5054805;28;20040;-81
2021/10/29 11:03:11;;;;;;;5.47;3.97;;;14.60;75.80;;;;;;5073939;28;20028;-82
2021/10/29 11:11:14;;;;;;;5.20;3.80;;;14.70;76.00;;;;;;5062845;28;20397;-80
2021/10/29 11:13:43;;;;;;;5.30;3.60;;;14.70;75.90;;;;;;5062663;28;20111;-79
2021/10/29 11:16:28;;;;;;;5.72;3.58;;;14.70;75.80;;;;;;5063634;28;20040;-80
2021/10/29 11:19:07;;;;;;;5.00;3.83;;;14.80;76.00;;;;;;5071452;28;20024;-81
2021/10/29 11:21:37;;;;;;;4.53;3.22;;;14.80;75.80;;;;;;5063721;28;20472;-82
2021/10/29 11:24:07;;;;;;;5.55;3.88;;;14.80;75.70;;;;;;5069950;28;20548;-81
2021/10/29 11:26:41;;;;;;;5.18;3.83;;;14.90;75.80;;;;;;5063122;28;20106;-81
2021/10/29 11:29:08;;;;;;;5.28;3.90;;;14.90;75.80;;;;;;5071018;28;20426;-81
2021/10/29 11:31:43;;;;;;;5.55;3.95;;;14.90;75.70;;;;;;5072051;28;20465;-81
2021/10/29 11:34:14;;;;;;;;;;;15.00;75.80;;;;;;5064149;28;20055;-81
2021/10/29 11:36:51;;;;;;;4.97;3.10;;;15.00;75.60;;;;;;5083295;28;20268;-81
2021/10/29 11:39:21;;;;;;;4.80;3.15;;;15.00;75.40;;;;;;5057536;28;20120;-81
2021/10/29 11:41:50;;;;;;;5.35;3.55;;;15.10;75.60;;;;;;5083364;28;20083;-79
2021/10/29 11:44:18;;;;;;;5.03;3.42;;;15.10;75.70;;;;;;5044721;28;20378;-80
2021/10/29 11:46:46;;;;;;;5.35;3.80;;;15.10;75.60;;;;;;5072069;28;20031;-80
2021/10/29 11:49:14;;;;;;;4.80;3.35;;;15.20;75.70;;;;;;5081322;28;20028;-81
2021/10/29 11:51:43;;;;;;;4.55;3.17;;;15.10;75.60;;;;;;5055056;28;20067;-80
2021/10/29 11:54:23;;;;;;;4.97;3.50;;;15.20;75.60;;;;;;5068838;28;20032;-80
2021/10/29 12:07:40;;;;;;;5.63;4.00;;;15.40;75.40;;;;;;5062626;28;20603;-81
2021/10/29 12:10:17;;;;;;;4.50;3.03;;;15.40;75.40;;;;;;5070475;28;20097;-80
2021/10/29 12:12:45;;;;;;;5.13;3.70;;;15.50;75.40;;;;;;5053697;28;20028;-80
2021/10/29 12:15:22;;;;;;;5.07;3.65;;;15.50;75.30;;;;;;5060478;28;20031;-81
2021/10/29 12:20:18;;;;;;;4.75;3.35;;;15.50;75.20;;;;;;5066099;28;20519;-81
2021/10/29 12:22:50;;;;;;;5.47;3.92;;;15.60;75.20;;;;;;5055634;28;20605;-81
2021/10/29 12:25:26;;;;;;;5.05;3.35;;;15.60;75.20;;;;;;5073594;28;20025;-82
2021/10/29 12:28:02;;;;;;;5.07;3.90;;;15.70;75.10;;;;;;5064135;28;20466;-80
2021/10/29 12:30:39;;;;;;;4.72;3.42;;;15.70;75.10;;;;;;5080334;28;20396;-84
2021/10/29 13:03:24;;;;;;;5.60;3.83;;;16.10;74.90;;;;;;5065985;28;20032;-80
2021/10/29 13:05:57;;;;;;;5.93;4.20;;;16.10;74.90;;;;;;5054257;28;20111;-85
2021/10/29 13:08:26;;;;;;;5.47;3.90;;;16.20;74.90;;;;;;5068489;28;20037;-82
2021/10/29 13:10:58;;;;;;;5.22;3.88;;;16.20;74.80;;;;;;5062251;28;20115;-81
2021/10/29 13:13:46;;;;;;;5.70;4.00;;;16.20;74.80;;;;;;5057055;28;20036;-81
2021/10/29 13:16:13;;;;;;;5.57;4.03;;;16.30;74.80;;;;;;5066272;28;20112;-81
2021/10/29 13:19:00;;;;;;;5.88;4.50;;;16.30;74.70;;;;;;5031858;28;20033;-81
2021/10/29 13:56:15;;;;;;;4.70;3.67;;;16.70;74.30;;;;;;5066583;28;20053;-82
2021/10/29 14:01:40;;;;;;;5.90;3.92;;;16.80;74.40;;;;;;5068284;28;20558;-82
2021/10/29 14:28:58;;;;;;;5.03;3.70;;;17.10;74.40;;;;;;5067180;28;20695;-82
2021/10/29 14:33:54;;;;;;;6.03;4.35;;;17.10;74.30;;;;;;5063326;28;20056;-83
2021/10/29 14:36:23;;;;;;;4.88;3.47;;;17.10;74.30;;;;;;5068679;28;20070;-83
2021/10/29 14:41:25;;;;;;;5.40;3.45;;;17.20;74.30;;;;;;5069374;28;20040;-83
2021/10/29 14:43:57;;;;;;;5.38;3.88;;;17.20;74.30;;;;;;5060376;28;20037;-82
2021/10/29 14:46:39;;;;;;;5.38;3.75;;;17.20;74.20;;;;;;5064438;28;20033;-82
2021/10/29 14:49:38;;;;;;;5.25;3.97;;;17.30;74.20;;;;;;5075071;28;20423;-82
2021/10/29 15:16:29;;;;;;;4.70;3.70;;;17.40;73.90;;;;;;5068724;28;20078;-83
2021/10/29 15:42:30;;;;;;;6.72;3.88;;;17.50;73.70;;;;;;5073912;28;20059;-80
2021/10/29 15:45:08;;;;;;;4.85;3.50;;;17.50;73.70;;;;;;5069941;28;20024;-81
2021/10/29 15:48:21;;;;;;;5.40;3.75;;;17.50;73.70;;;;;;5061864;28;20040;-81
2021/10/29 15:50:19;;;;;;;5.82;3.67;;;17.50;73.70;;;;;;5039397;28;20125;-80
2021/10/29 15:52:51;;;;;;;5.43;3.80;;;17.50;73.70;;;;;;5076381;28;20065;-80
2021/10/29 15:55:25;;;;;;;4.47;3.15;;;17.50;73.70;;;;;;5067723;28;20051;-80
2021/10/29 15:58:38;;;;;;;5.00;3.47;;;17.50;73.70;;;;;;5068939;28;20496;-81
2021/10/29 16:00:51;;;;;;;5.07;3.40;;;17.50;73.60;;;;;;5060411;28;20424;-80
2021/10/29 16:03:24;;;;;;;5.18;3.60;;;17.60;73.70;;;;;;5060573;28;20028;-83
2021/10/29 16:17:13;;;;;;;5.75;3.40;;;17.60;73.50;;;;;;5052828;28;20036;-81
2021/10/29 16:19:40;;;;;;;4.93;3.35;;;17.60;73.00;;;;;;5059919;28;20048;-82
2021/10/29 16:22:19;;;;;;;5.25;3.13;;;17.60;73.50;;;;;;5069931;28;20074;-81
2021/10/29 16:24:55;;;;;;;5.57;3.25;;;17.50;73.40;;;;;;5078686;28;20048;-81
2021/10/29 16:27:22;;;;;;;4.35;3.28;;;17.50;73.40;;;;;;5053009;28;20095;-80
2021/10/29 16:29:50;;;;;;;4.70;3.15;;;17.50;73.40;;;;;;5032834;28;20048;-82
2021/10/29 16:32:25;;;;;;;3.83;2.95;;;17.50;73.40;;;;;;5062363;28;20496;-81
2021/10/29 16:34:50;;;;;;;5.07;3.30;;;17.50;73.40;;;;;;5050341;28;20047;-81
2021/10/29 16:37:17;;;;;;;4.07;2.88;;;17.50;73.40;;;;;;5061449;28;20025;-79
2021/10/29 16:39:43;;;;;;;4.68;3.20;;;17.50;73.40;;;;;;5060934;28;20063;-80
2021/10/29 16:42:09;;;;;;;5.55;3.53;;;17.50;73.40;;;;;;5068698;28;20025;-80
2021/10/29 16:44:35;;;;;;;3.92;2.85;;;17.50;73.40;;;;;;5061892;28;20044;-80
2021/10/29 16:47:01;;;;;;;5.30;3.50;;;17.50;73.40;;;;;;5058189;28;20028;-80
2021/10/29 16:49:26;;;;;;;5.10;3.42;;;17.50;73.30;;;;;;5055942;28;20051;-80
2021/10/29 16:51:52;;;;;;;4.15;3.08;;;17.50;73.30;;;;;;5052667;28;20059;-80
2021/10/29 16:54:18;;;;;;;3.72;2.58;;;17.50;73.30;;;;;;5053474;28;20033;-80
2021/10/29 16:56:43;;;;;;;5.22;3.13;;;17.50;73.30;;;;;;5058846;28;20036;-81
2021/10/29 16:59:09;;;;;;;3.90;2.65;;;17.50;73.30;;;;;;5065839;28;20028;-84
2021/10/29 17:01:35;;;;;;;3.72;2.55;;;17.50;73.30;;;;;;5032748;28;20522;-80
2021/10/29 17:04:01;;;;;;;3.38;2.47;;;17.50;73.30;;;;;;5065712;28;20165;-80
2021/10/29 17:06:28;;;;;;;3.55;2.78;;;17.50;73.30;;;;;;5056312;28;20028;-80
2021/10/29 17:08:55;;;;;;;3.85;2.95;;;17.50;73.30;;;;;;5083145;28;20127;-80
2021/10/29 17:11:58;;;;;;;;;;;;;;;;;;;;;
2021/10/29 17:15:38;;;;;;;;;;;;;;;;;;;;;
2021/10/29 17:18:28;;;;;;;;;;;;;;;;;;;;;
2021/10/29 17:21:06;;;;;;;3.45;2.40;;;17.50;73.30;;;;;;5079578;28;20149;-81
2021/10/29 17:23:32;;;;;;;4.05;2.63;;;17.50;73.20;;;;;;5081243;28;20071;-81
2021/10/29 17:25:58;;;;;;;3.88;2.40;;;17.50;73.30;;;;;;5073846;28;20542;-81
2021/10/29 17:28:24;;;;;;;2.83;2.22;;;17.50;73.30;;;;;;5090158;28;20111;-80
2021/10/29 17:30:50;;;;;;;5.28;2.42;;;17.50;73.40;;;;;;5057477;28;20579;-80
2021/10/29 17:33:16;;;;;;;3.38;2.30;;;17.50;73.30;;;;;;5066315;28;20114;-80
2021/10/29 17:35:42;;;;;;;3.17;2.40;;;17.50;73.30;;;;;;5075902;28;20455;-80
2021/10/29 17:38:08;;;;;;;4.15;2.47;;;17.50;73.30;;;;;;5073379;28;20029;-82